sensor_id;sensor_type;location;lat;lon;timestamp;pressure;altitude;pressure_sealevel;temperature;humidity
4167;BME280;2097;51.104;7.150;2023-03-20T00:00:16;99143.94;;;7.92;100.00
4167;BME280;2097;51.104;7.150;2023-03-20T00:02:43;99146.66;;;7.89;100.00
4167;BME280;2097;51.104;7.150;2023-03-20T00:05:18;99127.38;;;7.77;100.00
4167;BME280;2097;51.104;7.150;2023-03-20T00:07:46;99117.69;;;7.62;100.00
4167;BME280;2097;51.104;7.150;2023-03-20T00:10:15;99131.97;;;7.70;100.00
4167;BME280;2097;51.104;7.150;2023-03-20T00:12:43;99147.25;;;7.75;100.00
4167;BME280;2097;51.104;7.150;2023-03-20T00:15:24;99144.81;;;7.72;100.00
4167;BME280;2097;51.104;7.150;2023-03-20T00:17:52;99079.41;;;7.30;100.00
4167;BME280;2097;51.104;7.150;2023-03-20T00:20:20;99156.81;;;7.73;100.00
4167;BME280;2097;51.104;7.150;2023-03-20T00:22:47;99156.03;;;7.71;100.00
4167;BME280;2097;51.104;7.150;2023-03-20T00:25:15;99160.50;;;7.67;100.00
4167;BME280;2097;51.104;7.150;2023-03-20T00:27:43;99157.06;;;7.67;100.00
4167;BME280;2097;51.104;7.150;2023-03-20T00:30:29;99169.94;;;7.68;100.00
4167;BME280;2097;51.104;7.150;2023-03-20T00:32:57;99180.38;;;7.65;100.00
4167;BME280;2097;51.104;7.150;2023-03-20T00:35:26;99171.03;;;7.63;100.00
4167;BME280;2097;51.104;7.150;2023-03-20T00:37:54;99105.03;;;7.13;100.00
4167;BME280;2097;51.104;7.150;2023-03-20T00:40:24;99161.06;;;7.54;100.00
4167;BME280;2097;51.104;7.150;2023-03-20T00:42:57;99172.03;;;7.59;100.00
4167;BME280;2097;51.104;7.150;2023-03-20T00:45:25;99160.31;;;7.50;100.00
4167;BME280;2097;51.104;7.150;2023-03-20T00:47:54;99179.06;;;7.55;100.00
4167;BME280;2097;51.104;7.150;2023-03-20T00:50:23;99177.44;;;7.53;100.00
4167;BME280;2097;51.104;7.150;2023-03-20T00:52:50;99172.22;;;7.54;100.00
4167;BME280;2097;51.104;7.150;2023-03-20T00:55:19;99177.38;;;7.54;100.00
4167;BME280;2097;51.104;7.150;2023-03-20T00:57:48;99012.81;;;6.54;100.00
4167;BME280;2097;51.104;7.150;2023-03-20T01:00:25;99180.03;;;7.53;100.00
4167;BME280;2097;51.104;7.150;2023-03-20T01:02:56;99175.69;;;7.53;100.00
4167;BME280;2097;51.104;7.150;2023-03-20T01:05:24;99177.38;;;7.54;100.00
4167;BME280;2097;51.104;7.150;2023-03-20T01:07:52;99177.38;;;7.54;100.00
4167;BME280;2097;51.104;7.150;2023-03-20T01:10:18;99169.69;;;7.53;100.00
4167;BME280;2097;51.104;7.150;2023-03-20T01:12:46;99174.00;;;7.52;100.00
4167;BME280;2097;51.104;7.150;2023-03-20T01:15:20;99180.03;;;7.53;100.00
4167;BME280;2097;51.104;7.150;2023-03-20T01:17:47;99164.84;;;7.45;100.00
4167;BME280;2097;51.104;7.150;2023-03-20T01:20:18;99162.91;;;7.50;100.00
4167;BME280;2097;51.104;7.150;2023-03-20T01:22:46;99160.28;;;7.52;100.00
4167;BME280;2097;51.104;7.150;2023-03-20T01:25:13;99168.13;;;7.49;100.00
4167;BME280;2097;51.104;7.150;2023-03-20T01:27:42;99125.56;;;7.16;100.00
4167;BME280;2097;51.104;7.150;2023-03-20T01:30:16;99130.38;;;7.25;100.00
4167;BME280;2097;51.104;7.150;2023-03-20T01:32:43;99166.53;;;7.46;100.00
4167;BME280;2097;51.104;7.150;2023-03-20T01:35:15;99176.91;;;7.45;100.00
4167;BME280;2097;51.104;7.150;2023-03-20T01:37:44;99173.34;;;7.47;100.00
4167;BME280;2097;51.104;7.150;2023-03-20T01:40:23;99169.03;;;7.48;100.00
4167;BME280;2097;51.104;7.150;2023-03-20T01:42:52;99168.13;;;7.49;100.00
4167;BME280;2097;51.104;7.150;2023-03-20T01:45:23;99146.94;;;7.41;100.00
4167;BME280;2097;51.104;7.150;2023-03-20T01:47:51;99158.78;;;7.46;100.00
4167;BME280;2097;51.104;7.150;2023-03-20T01:50:24;99142.66;;;7.40;100.00
4167;BME280;2097;51.104;7.150;2023-03-20T01:52:59;99167.34;;;7.47;100.00
4167;BME280;2097;51.104;7.150;2023-03-20T01:55:28;99161.41;;;7.45;100.00
4167;BME280;2097;51.104;7.150;2023-03-20T01:57:57;99161.47;;;7.43;100.00
4167;BME280;2097;51.104;7.150;2023-03-20T02:00:24;99164.19;;;7.40;100.00
4167;BME280;2097;51.104;7.150;2023-03-20T02:02:52;99161.72;;;7.37;100.00
4167;BME280;2097;51.104;7.150;2023-03-20T02:05:20;99160.97;;;7.34;100.00
4167;BME280;2097;51.104;7.150;2023-03-20T02:07:53;99154.22;;;7.31;100.00
4167;BME280;2097;51.104;7.150;2023-03-20T02:10:23;99151.81;;;7.27;100.00
4167;BME280;2097;51.104;7.150;2023-03-20T02:12:51;99153.72;;;7.22;100.00
4167;BME280;2097;51.104;7.150;2023-03-20T02:15:18;99152.28;;;7.15;100.00
4167;BME280;2097;51.104;7.150;2023-03-20T02:17:45;99155.16;;;7.07;100.00
4167;BME280;2097;51.104;7.150;2023-03-20T02:20:23;99127.75;;;6.82;100.00
4167;BME280;2097;51.104;7.150;2023-03-20T02:26:18;99156.81;;;6.87;100.00
4167;BME280;2097;51.104;7.150;2023-03-20T02:29:29;99158.72;;;6.82;100.00
4167;BME280;2097;51.104;7.150;2023-03-20T02:35:42;99170.03;;;6.78;100.00
4167;BME280;2097;51.104;7.150;2023-03-20T02:38:25;99157.03;;;6.81;100.00
4167;BME280;2097;51.104;7.150;2023-03-20T02:41:00;99145.13;;;6.77;100.00
4167;BME280;2097;51.104;7.150;2023-03-20T02:43:40;99155.13;;;6.86;100.00
4167;BME280;2097;51.104;7.150;2023-03-20T02:46:12;99149.97;;;6.86;100.00
4167;BME280;2097;51.104;7.150;2023-03-20T02:48:47;99018.84;;;6.08;100.00
4167;BME280;2097;51.104;7.150;2023-03-20T02:51:22;99158.59;;;6.85;100.00
4167;BME280;2097;51.104;7.150;2023-03-20T02:53:59;99158.47;;;6.88;100.00
4167;BME280;2097;51.104;7.150;2023-03-20T02:56:35;99158.38;;;6.91;100.00
4167;BME280;2097;51.104;7.150;2023-03-20T02:59:09;99163.34;;;6.95;100.00
4167;BME280;2097;51.104;7.150;2023-03-20T03:01:40;99032.78;;;6.26;100.00
4167;BME280;2097;51.104;7.150;2023-03-20T03:04:14;99153.63;;;7.02;100.00
4167;BME280;2097;51.104;7.150;2023-03-20T03:06:43;99157.91;;;7.03;100.00
4167;BME280;2097;51.104;7.150;2023-03-20T03:09:18;99171.56;;;7.05;100.00
4167;BME280;2097;51.104;7.150;2023-03-20T03:11:49;99184.44;;;7.06;100.00
4167;BME280;2097;51.104;7.150;2023-03-20T03:14:23;99186.13;;;7.07;100.00
4167;BME280;2097;51.104;7.150;2023-03-20T03:16:53;99175.06;;;7.04;100.00
4167;BME280;2097;51.104;7.150;2023-03-20T03:19:23;99186.84;;;7.11;100.00
4167;BME280;2097;51.104;7.150;2023-03-20T03:21:52;99180.00;;;7.10;100.00
4167;BME280;2097;51.104;7.150;2023-03-20T03:24:27;99179.09;;;7.11;100.00
4167;BME280;2097;51.104;7.150;2023-03-20T03:26:55;99184.16;;;7.14;100.00
4167;BME280;2097;51.104;7.150;2023-03-20T03:29:25;99184.97;;;7.14;100.00
4167;BME280;2097;51.104;7.150;2023-03-20T03:31:53;99195.25;;;7.16;100.00
4167;BME280;2097;51.104;7.150;2023-03-20T03:34:21;99192.66;;;7.16;100.00
4167;BME280;2097;51.104;7.150;2023-03-20T03:36:53;99185.72;;;7.18;100.00
4167;BME280;2097;51.104;7.150;2023-03-20T03:39:31;99178.78;;;7.18;100.00
4167;BME280;2097;51.104;7.150;2023-03-20T03:42:04;99157.22;;;7.21;100.00
4167;BME280;2097;51.104;7.150;2023-03-20T03:44:36;99160.69;;;7.20;100.00
4167;BME280;2097;51.104;7.150;2023-03-20T03:47:10;99167.66;;;7.18;100.00
4167;BME280;2097;51.104;7.150;2023-03-20T03:49:41;99144.47;;;7.16;100.00
4167;BME280;2097;51.104;7.150;2023-03-20T03:52:11;99136.72;;;7.16;100.00
4167;BME280;2097;51.104;7.150;2023-03-20T03:54:45;99142.13;;;7.10;100.00
4167;BME280;2097;51.104;7.150;2023-03-20T03:57:17;99133.06;;;7.00;100.00
4167;BME280;2097;51.104;7.150;2023-03-20T03:59:49;99117.09;;;6.91;100.00
4167;BME280;2097;51.104;7.150;2023-03-20T04:02:18;99112.41;;;6.79;100.00
4167;BME280;2097;51.104;7.150;2023-03-20T04:04:48;99136.50;;;6.78;100.00
4167;BME280;2097;51.104;7.150;2023-03-20T04:07:16;99140.09;;;6.74;100.00
4167;BME280;2097;51.104;7.150;2023-03-20T04:09:44;99143.56;;;6.73;100.00
4167;BME280;2097;51.104;7.150;2023-03-20T04:12:34;99143.50;;;6.74;100.00
4167;BME280;2097;51.104;7.150;2023-03-20T04:15:02;99159.75;;;6.76;100.00
4167;BME280;2097;51.104;7.150;2023-03-20T04:17:29;99155.34;;;6.80;100.00
4167;BME280;2097;51.104;7.150;2023-03-20T04:19:56;99167.28;;;6.82;100.00
4167;BME280;2097;51.104;7.150;2023-03-20T04:22:23;99161.09;;;6.86;100.00
4167;BME280;2097;51.104;7.150;2023-03-20T04:24:52;99144.25;;;6.78;100.00
4167;BME280;2097;51.104;7.150;2023-03-20T04:27:19;99165.19;;;6.92;100.00
4167;BME280;2097;51.104;7.150;2023-03-20T04:29:46;99175.41;;;6.95;100.00
4167;BME280;2097;51.104;7.150;2023-03-20T04:32:13;99182.22;;;6.96;100.00
4167;BME280;2097;51.104;7.150;2023-03-20T04:34:40;99175.28;;;6.98;100.00
4167;BME280;2097;51.104;7.150;2023-03-20T04:37:06;99178.66;;;7.00;100.00
4167;BME280;2097;51.104;7.150;2023-03-20T04:39:33;99168.31;;;7.00;100.00
4167;BME280;2097;51.104;7.150;2023-03-20T04:42:02;99175.16;;;7.01;100.00
4167;BME280;2097;51.104;7.150;2023-03-20T04:44:30;99169.06;;;7.03;100.00
4167;BME280;2097;51.104;7.150;2023-03-20T04:46:57;99158.69;;;7.05;100.00
4167;BME280;2097;51.104;7.150;2023-03-20T04:49:24;99149.22;;;7.05;100.00
4167;BME280;2097;51.104;7.150;2023-03-20T04:51:51;99144.22;;;7.01;100.00
4167;BME280;2097;51.104;7.150;2023-03-20T04:54:18;99142.28;;;7.06;100.00
4167;BME280;2097;51.104;7.150;2023-03-20T04:56:45;99133.22;;;6.96;100.00
4167;BME280;2097;51.104;7.150;2023-03-20T04:59:13;99143.28;;;7.03;100.00
4167;BME280;2097;51.104;7.150;2023-03-20T05:01:40;99142.41;;;7.03;100.00
4167;BME280;2097;51.104;7.150;2023-03-20T05:04:06;99145.00;;;7.03;100.00
4167;BME280;2097;51.104;7.150;2023-03-20T05:06:33;99145.78;;;7.05;100.00
4167;BME280;2097;51.104;7.150;2023-03-20T05:09:01;99127.69;;;7.06;100.00
4167;BME280;2097;51.104;7.150;2023-03-20T05:11:28;99126.81;;;7.06;100.00
4167;BME280;2097;51.104;7.150;2023-03-20T05:13:55;99128.56;;;7.05;100.00
4167;BME280;2097;51.104;7.150;2023-03-20T05:16:23;99128.63;;;7.04;100.00
4167;BME280;2097;51.104;7.150;2023-03-20T05:18:50;99122.66;;;7.02;100.00
4167;BME280;2097;51.104;7.150;2023-03-20T05:21:16;99123.56;;;7.01;100.00
4167;BME280;2097;51.104;7.150;2023-03-20T05:23:43;99129.81;;;6.95;100.00
4167;BME280;2097;51.104;7.150;2023-03-20T05:26:10;99127.28;;;6.94;100.00
4167;BME280;2097;51.104;7.150;2023-03-20T05:28:37;99125.75;;;6.90;100.00
4167;BME280;2097;51.104;7.150;2023-03-20T05:31:04;99119.00;;;6.86;100.00
4167;BME280;2097;51.104;7.150;2023-03-20T05:33:32;99119.13;;;6.83;100.00
4167;BME280;2097;51.104;7.150;2023-03-20T05:35:59;99121.84;;;6.78;100.00
4167;BME280;2097;51.104;7.150;2023-03-20T05:38:26;99132.47;;;6.71;100.00
4167;BME280;2097;51.104;7.150;2023-03-20T05:40:55;99131.91;;;6.63;100.00
4167;BME280;2097;51.104;7.150;2023-03-20T05:43:23;99127.13;;;6.53;100.00
4167;BME280;2097;51.104;7.150;2023-03-20T05:45:49;99148.97;;;6.43;100.00
4167;BME280;2097;51.104;7.150;2023-03-20T05:48:16;99159.63;;;6.34;100.00
4167;BME280;2097;51.104;7.150;2023-03-20T05:50:44;99170.97;;;6.28;100.00
4167;BME280;2097;51.104;7.150;2023-03-20T05:53:11;99173.66;;;6.25;100.00
4167;BME280;2097;51.104;7.150;2023-03-20T05:55:38;99172.81;;;6.25;100.00
4167;BME280;2097;51.104;7.150;2023-03-20T05:58:05;99161.75;;;6.21;100.00
4167;BME280;2097;51.104;7.150;2023-03-20T06:00:32;99162.66;;;6.20;100.00
4167;BME280;2097;51.104;7.150;2023-03-20T06:02:59;99167.81;;;6.20;100.00
4167;BME280;2097;51.104;7.150;2023-03-20T06:05:26;99142.38;;;6.11;100.00
4167;BME280;2097;51.104;7.150;2023-03-20T06:07:54;99149.22;;;6.12;100.00
4167;BME280;2097;51.104;7.150;2023-03-20T06:10:21;99154.16;;;6.18;100.00
4167;BME280;2097;51.104;7.150;2023-03-20T06:12:48;99156.69;;;6.20;100.00
4167;BME280;2097;51.104;7.150;2023-03-20T06:15:15;99141.38;;;6.15;100.00
4167;BME280;2097;51.104;7.150;2023-03-20T06:17:41;99155.72;;;6.22;100.00
4167;BME280;2097;51.104;7.150;2023-03-20T06:20:10;99159.97;;;6.23;100.00
4167;BME280;2097;51.104;7.150;2023-03-20T06:22:36;99154.72;;;6.26;100.00
4167;BME280;2097;51.104;7.150;2023-03-20T06:25:06;99165.78;;;6.30;100.00
4167;BME280;2097;51.104;7.150;2023-03-20T06:27:33;99157.09;;;6.32;100.00
4167;BME280;2097;51.104;7.150;2023-03-20T06:29:59;99154.47;;;6.34;100.00
4167;BME280;2097;51.104;7.150;2023-03-20T06:32:26;99159.47;;;6.38;100.00
4167;BME280;2097;51.104;7.150;2023-03-20T06:34:53;99161.81;;;6.44;100.00
4167;BME280;2097;51.104;7.150;2023-03-20T06:37:20;99156.50;;;6.49;100.00
4167;BME280;2097;51.104;7.150;2023-03-20T06:39:47;99147.81;;;6.51;100.00
4167;BME280;2097;51.104;7.150;2023-03-20T06:42:15;99147.59;;;6.57;100.00
4167;BME280;2097;51.104;7.150;2023-03-20T06:44:42;99156.00;;;6.62;100.00
4167;BME280;2097;51.104;7.150;2023-03-20T06:47:09;99155.78;;;6.68;100.00
4167;BME280;2097;51.104;7.150;2023-03-20T06:49:36;99167.78;;;6.69;100.00
4167;BME280;2097;51.104;7.150;2023-03-20T06:52:03;99167.75;;;6.71;100.00
4167;BME280;2097;51.104;7.150;2023-03-20T06:54:30;99166.94;;;6.69;100.00
4167;BME280;2097;51.104;7.150;2023-03-20T06:56:57;99166.94;;;6.69;100.00
4167;BME280;2097;51.104;7.150;2023-03-20T06:59:26;99165.16;;;6.71;100.00
4167;BME280;2097;51.104;7.150;2023-03-20T07:01:52;99174.50;;;6.73;100.00
4167;BME280;2097;51.104;7.150;2023-03-20T07:04:19;99181.13;;;6.80;100.00
4167;BME280;2097;51.104;7.150;2023-03-20T07:06:46;99179.13;;;6.88;100.00
4167;BME280;2097;51.104;7.150;2023-03-20T07:09:13;99194.34;;;6.94;100.00
4167;BME280;2097;51.104;7.150;2023-03-20T07:11:41;99194.13;;;7.00;100.00
4167;BME280;2097;51.104;7.150;2023-03-20T07:14:09;99196.66;;;7.01;100.00
4167;BME280;2097;51.104;7.150;2023-03-20T07:16:37;99207.66;;;7.06;100.00
4167;BME280;2097;51.104;7.150;2023-03-20T07:19:04;99211.63;;;7.15;100.00
4167;BME280;2097;51.104;7.150;2023-03-20T07:21:31;99213.03;;;7.23;100.00
4167;BME280;2097;51.104;7.150;2023-03-20T07:23:58;99215.44;;;7.28;100.00
4167;BME280;2097;51.104;7.150;2023-03-20T07:26:25;99202.47;;;7.29;100.00
4167;BME280;2097;51.104;7.150;2023-03-20T07:28:52;99224.03;;;7.50;100.00
4167;BME280;2097;51.104;7.150;2023-03-20T07:31:21;99215.94;;;7.59;100.00
4167;BME280;2097;51.104;7.150;2023-03-20T07:33:50;99214.94;;;7.63;100.00
4167;BME280;2097;51.104;7.150;2023-03-20T07:36:17;99200.22;;;7.65;100.00
4167;BME280;2097;51.104;7.150;2023-03-20T07:38:43;99218.56;;;7.79;100.00
4167;BME280;2097;51.104;7.150;2023-03-20T07:41:10;99219.78;;;7.91;100.00
4167;BME280;2097;51.104;7.150;2023-03-20T07:43:37;99221.34;;;7.95;100.00
4167;BME280;2097;51.104;7.150;2023-03-20T07:46:06;99217.56;;;8.02;100.00
4167;BME280;2097;51.104;7.150;2023-03-20T07:48:33;99219.34;;;8.02;100.00
4167;BME280;2097;51.104;7.150;2023-03-20T07:51:01;99217.56;;;8.02;100.00
4167;BME280;2097;51.104;7.150;2023-03-20T07:53:28;99227.00;;;8.03;100.00
4167;BME280;2097;51.104;7.150;2023-03-20T07:55:55;99227.78;;;8.05;100.00
4167;BME280;2097;51.104;7.150;2023-03-20T07:58:22;99228.44;;;8.10;100.00
4167;BME280;2097;51.104;7.150;2023-03-20T08:00:48;99231.94;;;8.09;100.00
4167;BME280;2097;51.104;7.150;2023-03-20T08:03:15;99227.66;;;8.08;100.00
4167;BME280;2097;51.104;7.150;2023-03-20T08:05:42;99236.09;;;8.13;100.00
4167;BME280;2097;51.104;7.150;2023-03-20T08:08:10;99237.63;;;8.19;100.00
4167;BME280;2097;51.104;7.150;2023-03-20T08:10:37;99234.75;;;8.25;100.00
4167;BME280;2097;51.104;7.150;2023-03-20T08:13:04;99233.81;;;8.27;100.00
4167;BME280;2097;51.104;7.150;2023-03-20T08:15:31;99247.41;;;8.32;100.00
4167;BME280;2097;51.104;7.150;2023-03-20T08:17:58;99245.59;;;8.34;100.00
4167;BME280;2097;51.104;7.150;2023-03-20T08:20:25;99253.94;;;8.41;100.00
4167;BME280;2097;51.104;7.150;2023-03-20T08:22:52;99252.03;;;8.44;100.00
4167;BME280;2097;51.104;7.150;2023-03-20T08:25:20;99247.84;;;8.42;100.00
4167;BME280;2097;51.104;7.150;2023-03-20T08:27:47;99246.50;;;8.33;100.00
4167;BME280;2097;51.104;7.150;2023-03-20T08:30:15;99193.56;;;8.00;100.00
4167;BME280;2097;51.104;7.150;2023-03-20T08:32:42;99247.91;;;8.40;100.00
4167;BME280;2097;51.104;7.150;2023-03-20T08:35:09;99245.47;;;8.37;100.00
4167;BME280;2097;51.104;7.150;2023-03-20T08:37:36;99258.66;;;8.51;100.00
4167;BME280;2097;51.104;7.150;2023-03-20T08:40:04;99258.97;;;8.64;100.00
4167;BME280;2097;51.104;7.150;2023-03-20T08:42:34;99258.56;;;8.73;100.00
4167;BME280;2097;51.104;7.150;2023-03-20T08:45:00;99267.75;;;8.80;100.00
4167;BME280;2097;51.104;7.150;2023-03-20T08:47:27;99266.00;;;8.80;100.00
4167;BME280;2097;51.104;7.150;2023-03-20T08:49:54;99269.38;;;8.82;100.00
4167;BME280;2097;51.104;7.150;2023-03-20T08:52:21;99265.88;;;8.83;100.00
4167;BME280;2097;51.104;7.150;2023-03-20T08:54:48;99263.94;;;8.88;100.00
4167;BME280;2097;51.104;7.150;2023-03-20T08:57:15;99261.00;;;8.96;100.00
4167;BME280;2097;51.104;7.150;2023-03-20T08:59:43;99263.41;;;9.00;100.00
4167;BME280;2097;51.104;7.150;2023-03-20T09:02:10;99256.69;;;8.96;100.00
4167;BME280;2097;51.104;7.150;2023-03-20T09:04:37;99269.09;;;9.08;100.00
4167;BME280;2097;51.104;7.150;2023-03-20T09:07:04;99266.06;;;9.17;100.00
4167;BME280;2097;51.104;7.150;2023-03-20T09:09:31;99261.91;;;9.33;100.00
4167;BME280;2097;51.104;7.150;2023-03-20T09:11:58;99257.84;;;9.46;100.00
4167;BME280;2097;51.104;7.150;2023-03-20T09:14:26;99273.41;;;9.64;100.00
4167;BME280;2097;51.104;7.150;2023-03-20T09:20:06;99265.03;;;9.58;100.00
4167;BME280;2097;51.104;7.150;2023-03-20T09:22:33;99264.69;;;9.47;100.00
4167;BME280;2097;51.104;7.150;2023-03-20T09:25:00;99114.94;;;8.64;100.00
4167;BME280;2097;51.104;7.150;2023-03-20T09:27:27;99261.19;;;9.48;100.00
4167;BME280;2097;51.104;7.150;2023-03-20T09:29:54;99267.72;;;9.38;100.00
4167;BME280;2097;51.104;7.150;2023-03-20T09:32:21;99266.66;;;9.23;100.00
4167;BME280;2097;51.104;7.150;2023-03-20T09:34:47;99237.38;;;9.03;100.00
4167;BME280;2097;51.104;7.150;2023-03-20T09:37:16;99266.97;;;9.16;100.00
4167;BME280;2097;51.104;7.150;2023-03-20T09:39:42;99268.94;;;9.11;100.00
4167;BME280;2097;51.104;7.150;2023-03-20T09:42:20;99268.59;;;9.00;100.00
4167;BME280;2097;51.104;7.150;2023-03-20T09:44:55;99270.78;;;8.89;100.00
4167;BME280;2097;51.104;7.150;2023-03-20T09:47:30;99265.03;;;8.83;100.00
4167;BME280;2097;51.104;7.150;2023-03-20T09:50:17;99160.81;;;8.21;100.00
4167;BME280;2097;51.104;7.150;2023-03-20T09:52:56;99264.78;;;8.89;100.00
4167;BME280;2097;51.104;7.150;2023-03-20T09:55:31;99257.59;;;8.95;100.00
4167;BME280;2097;51.104;7.150;2023-03-20T09:58:05;99250.97;;;9.08;100.00
4167;BME280;2097;51.104;7.150;2023-03-20T10:00:34;99252.03;;;9.22;100.00
4167;BME280;2097;51.104;7.150;2023-03-20T10:03:04;99258.53;;;9.31;99.84
4167;BME280;2097;51.104;7.150;2023-03-20T10:05:36;99212.13;;;9.08;99.94
4167;BME280;2097;51.104;7.150;2023-03-20T10:08:11;99257.13;;;9.42;99.34
4167;BME280;2097;51.104;7.150;2023-03-20T10:10:47;99250.81;;;9.48;99.10
4167;BME280;2097;51.104;7.150;2023-03-20T10:16:19;99253.09;;;9.55;98.41
4167;BME280;2097;51.104;7.150;2023-03-20T10:18:57;99249.72;;;9.53;98.19
4167;BME280;2097;51.104;7.150;2023-03-20T10:21:29;99255.31;;;9.44;97.81
4167;BME280;2097;51.104;7.150;2023-03-20T10:24:02;99263.19;;;9.43;97.83
4167;BME280;2097;51.104;7.150;2023-03-20T10:26:33;99264.28;;;9.37;97.87
4167;BME280;2097;51.104;7.150;2023-03-20T10:29:01;99257.69;;;9.30;98.07
4167;BME280;2097;51.104;7.150;2023-03-20T10:31:40;99258.41;;;9.34;98.08
4167;BME280;2097;51.104;7.150;2023-03-20T10:34:22;99258.78;;;9.45;97.48
4167;BME280;2097;51.104;7.150;2023-03-20T10:37:03;99256.72;;;9.51;96.80
4167;BME280;2097;51.104;7.150;2023-03-20T10:39:47;99220.47;;;9.33;96.45
4167;BME280;2097;51.104;7.150;2023-03-20T10:42:20;99256.00;;;9.48;96.72
4167;BME280;2097;51.104;7.150;2023-03-20T10:44:51;99251.13;;;9.60;96.76
4167;BME280;2097;51.104;7.150;2023-03-20T10:47:20;99256.00;;;9.66;96.06
4167;BME280;2097;51.104;7.150;2023-03-20T10:49:53;99258.53;;;9.68;95.45
4167;BME280;2097;51.104;7.150;2023-03-20T10:52:24;99240.31;;;9.69;95.46
4167;BME280;2097;51.104;7.150;2023-03-20T10:54:55;99251.38;;;9.73;95.25
4167;BME280;2097;51.104;7.150;2023-03-20T10:57:24;99245.22;;;9.75;94.72
4167;BME280;2097;51.104;7.150;2023-03-20T10:59:53;99246.59;;;9.82;94.62
4167;BME280;2097;51.104;7.150;2023-03-20T11:02:24;99028.84;;;8.79;93.78
4167;BME280;2097;51.104;7.150;2023-03-20T11:04:52;99240.13;;;10.09;93.38
4167;BME280;2097;51.104;7.150;2023-03-20T11:07:23;99235.50;;;10.16;92.94
4167;BME280;2097;51.104;7.150;2023-03-20T11:12:47;99239.00;;;10.15;91.73
4167;BME280;2097;51.104;7.150;2023-03-20T11:15:22;99237.63;;;10.08;91.49
4167;BME280;2097;51.104;7.150;2023-03-20T11:17:54;99244.00;;;10.01;90.44
4167;BME280;2097;51.104;7.150;2023-03-20T11:20:21;99221.38;;;9.86;90.33
4167;BME280;2097;51.104;7.150;2023-03-20T11:22:49;99238.09;;;9.97;89.62
4167;BME280;2097;51.104;7.150;2023-03-20T11:25:24;99221.06;;;9.92;88.70
4167;BME280;2097;51.104;7.150;2023-03-20T11:27:56;99223.19;;;10.02;88.66
4167;BME280;2097;51.104;7.150;2023-03-20T11:30:24;99224.03;;;10.03;87.53
4167;BME280;2097;51.104;7.150;2023-03-20T11:32:54;99166.91;;;9.69;87.47
4167;BME280;2097;51.104;7.150;2023-03-20T11:35:28;99217.84;;;10.05;86.90
4167;BME280;2097;51.104;7.150;2023-03-20T11:38:07;99222.19;;;10.05;86.24
4167;BME280;2097;51.104;7.150;2023-03-20T11:40:36;99186.31;;;9.79;85.97
4167;BME280;2097;51.104;7.150;2023-03-20T11:43:10;99219.66;;;10.03;85.55
4167;BME280;2097;51.104;7.150;2023-03-20T11:45:39;99220.75;;;10.16;85.66
4167;BME280;2097;51.104;7.150;2023-03-20T11:48:14;99167.75;;;10.05;84.61
4167;BME280;2097;51.104;7.150;2023-03-20T11:50:45;99201.00;;;10.30;84.65
4167;BME280;2097;51.104;7.150;2023-03-20T11:53:20;99208.94;;;10.27;83.88
4167;BME280;2097;51.104;7.150;2023-03-20T11:56:00;99208.03;;;10.28;84.08
4167;BME280;2097;51.104;7.150;2023-03-20T11:58:29;99208.78;;;10.30;83.73
4167;BME280;2097;51.104;7.150;2023-03-20T12:00:57;99205.72;;;10.22;83.82
4167;BME280;2097;51.104;7.150;2023-03-20T12:03:38;99193.38;;;10.11;83.98
4167;BME280;2097;51.104;7.150;2023-03-20T12:06:08;99204.66;;;10.10;84.53
4167;BME280;2097;51.104;7.150;2023-03-20T12:08:40;99212.75;;;10.20;84.67
4167;BME280;2097;51.104;7.150;2023-03-20T12:11:22;99053.50;;;9.40;83.76
4167;BME280;2097;51.104;7.150;2023-03-20T12:13:53;99203.06;;;10.41;84.10
4167;BME280;2097;51.104;7.150;2023-03-20T12:16:23;99197.19;;;10.54;84.28
4167;BME280;2097;51.104;7.150;2023-03-20T12:18:53;99197.59;;;10.62;84.20
4167;BME280;2097;51.104;7.150;2023-03-20T12:21:26;99205.28;;;10.48;83.55
4167;BME280;2097;51.104;7.150;2023-03-20T12:23:59;99202.00;;;10.28;84.26
4167;BME280;2097;51.104;7.150;2023-03-20T12:26:31;99208.47;;;10.03;84.96
4167;BME280;2097;51.104;7.150;2023-03-20T12:29:06;99198.13;;;9.84;85.67
4167;BME280;2097;51.104;7.150;2023-03-20T12:31:39;99195.13;;;9.75;86.25
4167;BME280;2097;51.104;7.150;2023-03-20T12:34:11;99193.31;;;9.77;86.57
4167;BME280;2097;51.104;7.150;2023-03-20T12:36:42;99198.03;;;9.69;86.69
4167;BME280;2097;51.104;7.150;2023-03-20T12:39:11;99198.44;;;9.60;87.07
4167;BME280;2097;51.104;7.150;2023-03-20T12:41:51;99191.59;;;9.59;86.85
4167;BME280;2097;51.104;7.150;2023-03-20T12:44:28;99198.03;;;9.69;86.76
4167;BME280;2097;51.104;7.150;2023-03-20T12:47:11;99195.00;;;9.78;86.41
4167;BME280;2097;51.104;7.150;2023-03-20T12:49:44;99193.63;;;9.88;86.23
4167;BME280;2097;51.104;7.150;2023-03-20T12:52:21;99195.09;;;9.93;85.48
4167;BME280;2097;51.104;7.150;2023-03-20T12:55:14;99097.34;;;9.26;85.31
4167;BME280;2097;51.104;7.150;2023-03-20T12:57:56;99193.94;;;9.82;85.58
4167;BME280;2097;51.104;7.150;2023-03-20T13:00:30;99182.84;;;9.78;85.52
4167;BME280;2097;51.104;7.150;2023-03-20T13:03:14;99187.56;;;9.70;85.52
4167;BME280;2097;51.104;7.150;2023-03-20T13:05:48;99179.00;;;9.51;86.00
4167;BME280;2097;51.104;7.150;2023-03-20T13:08:42;99183.94;;;9.39;86.55
4167;BME280;2097;51.104;7.150;2023-03-20T13:11:15;99161.13;;;9.10;86.84
4167;BME280;2097;51.104;7.150;2023-03-20T13:13:50;99184.13;;;9.16;87.44
4167;BME280;2097;51.104;7.150;2023-03-20T13:16:29;99176.44;;;9.14;87.39
4167;BME280;2097;51.104;7.150;2023-03-20T13:19:04;99163.38;;;8.99;87.40
4167;BME280;2097;51.104;7.150;2023-03-20T13:21:36;99184.63;;;9.05;88.01
4167;BME280;2097;51.104;7.150;2023-03-20T13:24:18;99176.50;;;9.13;87.99
4167;BME280;2097;51.104;7.150;2023-03-20T13:26:52;99134.66;;;9.03;87.85
4167;BME280;2097;51.104;7.150;2023-03-20T13:29:28;99161.94;;;9.29;87.78
4167;BME280;2097;51.104;7.150;2023-03-20T13:32:11;99176.78;;;9.44;87.65
4167;BME280;2097;51.104;7.150;2023-03-20T13:34:54;99166.97;;;9.50;87.22
4167;BME280;2097;51.104;7.150;2023-03-20T13:37:29;99168.69;;;9.50;86.83
4167;BME280;2097;51.104;7.150;2023-03-20T13:40:04;99172.28;;;9.47;86.90
4167;BME280;2097;51.104;7.150;2023-03-20T13:42:36;99155.75;;;9.50;86.84
4167;BME280;2097;51.104;7.150;2023-03-20T13:45:09;99161.25;;;9.61;86.65
4167;BME280;2097;51.104;7.150;2023-03-20T13:47:45;99159.78;;;9.74;86.14
4167;BME280;2097;51.104;7.150;2023-03-20T13:50:25;99161.31;;;9.78;85.82
4167;BME280;2097;51.104;7.150;2023-03-20T13:52:58;99158.63;;;9.79;85.61
4167;BME280;2097;51.104;7.150;2023-03-20T13:55:31;99148.88;;;9.84;85.36
4167;BME280;2097;51.104;7.150;2023-03-20T13:58:13;99146.19;;;9.86;84.92